Time;durP1;ratioP1;P1;durP2;ratioP2;P2;SDS_P1;SDS_P2;PMS_P1;PMS_P2;Temp;Humidity;BMP_temperature;BMP_pressure;BME280_temperature;BME280_humidity;BME280_pressure;Samples;Min_cycle;Max_cycle;Signal;HPM_P1;HPM_P2
2023/01/12 00:02:02;;;;;;;12.63;1.80;;;;;;;5.53;81.90;95863.16;4928149;29;20212;-86
2023/01/12 00:04:29;;;;;;;11.07;1.80;;;;;;;5.58;82.43;95856.75;4922995;29;20651;-84
2023/01/12 00:06:55;;;;;;;4.40;1.20;;;;;;;5.68;82.45;95851.75;4935684;29;20188;-85
2023/01/12 00:09:21;;;;;;;9.10;1.87;;;;;;;5.69;82.15;95840.50;4914684;29;20734;-84
2023/01/12 00:11:46;;;;;;;12.10;2.03;;;;;;;5.67;81.82;95850.13;4927480;29;20194;-84
2023/01/12 00:14:12;;;;;;;7.70;1.70;;;;;;;5.65;82.24;95859.69;4922843;29;20285;-84
2023/01/12 00:16:37;;;;;;;8.57;1.70;;;;;;;5.73;81.88;95843.69;4938037;29;20686;-85
2023/01/12 00:19:09;;;;;;;5.53;1.67;;;;;;;5.72;81.87;95853.16;4935039;29;20296;-83
2023/01/12 00:21:39;;;;;;;9.53;1.80;;;;;;;5.76;81.59;95848.63;4915163;29;20198;-84
2023/01/12 00:24:07;;;;;;;10.77;1.93;;;;;;;5.72;81.07;95845.44;4921499;29;20182;-85
2023/01/12 00:26:32;;;;;;;7.60;1.83;;;;;;;5.68;81.69;95851.75;4926192;29;20193;-85
2023/01/12 00:28:58;;;;;;;4.63;1.33;;;;;;;5.77;80.43;95843.38;4944306;29;20222;-84
2023/01/12 00:31:23;;;;;;;10.33;2.07;;;;;;;5.78;80.82;95846.75;4935853;29;20206;-84
2023/01/12 00:33:48;;;;;;;6.43;1.40;;;;;;;5.78;80.06;95854.50;4917018;29;20241;-85
2023/01/12 00:36:14;;;;;;;9.90;1.57;;;;;;;5.81;79.48;95846.53;4941655;29;20245;-84
2023/01/12 00:38:40;;;;;;;7.27;1.50;;;;;;;5.89;79.11;95844.22;4932560;29;20683;-85
2023/01/12 00:41:10;;;;;;;5.57;1.33;;;;;;;5.78;79.26;95847.59;4924459;29;20222;-84
2023/01/12 00:46:30;;;;;;;7.47;1.70;;;;;;;5.77;79.04;95834.81;4924121;29;20201;-84
2023/01/12 00:48:55;;;;;;;4.80;1.43;;;;;;;5.87;78.56;95836.59;4920925;29;20210;-85
2023/01/12 00:51:20;;;;;;;7.70;1.53;;;;;;;5.92;78.49;95831.16;4928377;29;20186;-85
2023/01/12 00:53:46;;;;;;;7.63;1.77;;;;;;;5.92;78.71;95823.44;4924998;29;20194;-84
2023/01/12 00:56:11;;;;;;;11.07;1.57;;;;;;;5.97;78.59;95808.44;4926111;29;20720;-84
2023/01/12 00:58:36;;;;;;;8.53;1.90;;;;;;;5.76;79.44;95805.66;4914339;29;20220;-84
2023/01/12 01:01:06;;;;;;;6.37;1.60;;;;;;;5.73;79.89;95816.16;4924081;29;20198;-85
2023/01/12 01:03:31;;;;;;;6.80;1.37;;;;;;;5.89;79.12;95818.44;4930874;29;20214;-85
2023/01/12 01:06:04;;;;;;;8.00;1.80;;;;;;;5.85;79.94;95819.63;4918130;29;20587;-84
2023/01/12 01:08:30;;;;;;;6.30;1.23;;;;;;;5.87;80.66;95820.31;4914018;29;20217;-85
2023/01/12 01:11:21;;;;;;;8.67;1.90;;;;;;;5.89;80.97;95814.09;4923021;29;20552;-85
2023/01/12 01:13:47;;;;;;;7.17;1.30;;;;;;;5.87;81.15;95812.59;4915311;29;20194;-85
2023/01/12 01:16:15;;;;;;;5.70;1.50;;;;;;;5.95;81.01;95812.88;4915839;29;20194;-85
2023/01/12 01:18:41;;;;;;;4.70;1.83;;;;;;;5.88;81.02;95812.47;4916404;29;20224;-84
2023/01/12 01:21:11;;;;;;;8.27;1.87;;;;;;;5.94;80.62;95822.38;4933944;29;20206;-85
2023/01/12 01:23:37;;;;;;;9.67;1.53;;;;;;;5.75;81.46;95827.19;4903822;29;20202;-84
2023/01/12 01:26:07;;;;;;;6.90;1.60;;;;;;;5.86;82.06;95837.53;4915665;29;20250;-84
2023/01/12 01:28:33;;;;;;;8.70;1.80;;;;;;;5.69;82.45;95840.50;4924217;29;20249;-85
2023/01/12 01:31:10;;;;;;;7.43;1.33;;;;;;;5.94;82.15;95840.41;4923728;29;20225;-85
2023/01/12 01:33:35;;;;;;;10.80;2.20;;;;;;;5.76;82.73;95839.16;4929940;29;20186;-85
2023/01/12 01:36:01;;;;;;;10.30;2.23;;;;;;;5.77;83.46;95835.63;4925335;29;20189;-86
2023/01/12 01:38:26;;;;;;;7.70;1.80;;;;;;;5.79;84.21;95833.75;4945433;29;20214;-84
2023/01/12 01:40:52;;;;;;;5.30;1.50;;;;;;;5.80;84.36;95834.56;4915641;29;20249;-84
2023/01/12 01:43:19;;;;;;;8.23;1.80;;;;;;;5.68;84.08;95836.31;4933919;29;20190;-84
2023/01/12 01:45:48;;;;;;;7.97;1.77;;;;;;;5.80;83.51;95837.97;4931803;29;20220;-83
2023/01/12 01:48:14;;;;;;;6.10;1.50;;;;;;;5.88;83.43;95838.25;4937032;29;20264;-84
2023/01/12 01:50:43;;;;;;;7.33;1.50;;;;;;;5.90;83.30;95838.13;4929873;29;20793;-84
2023/01/12 01:53:13;;;;;;;7.13;1.80;;;;;;;5.69;83.97;95840.50;4924155;29;20206;-83
2023/01/12 01:55:49;;;;;;;5.10;1.70;;;;;;;5.80;84.04;95832.81;4918943;29;20224;-83
2023/01/12 01:58:19;;;;;;;10.50;1.97;;;;;;;5.62;84.76;95834.97;4931795;29;20213;-84
2023/01/12 02:00:45;;;;;;;5.23;1.40;;;;;;;5.71;84.00;95833.50;4939469;29;20206;-85
2023/01/12 02:03:12;;;;;;;5.97;2.03;;;;;;;5.83;83.40;95836.94;4916951;29;20182;-84
2023/01/12 02:05:41;;;;;;;7.40;1.53;;;;;;;5.79;83.94;95830.38;4913975;29;20189;-84
2023/01/12 02:08:15;;;;;;;8.17;1.53;;;;;;;5.78;84.09;95826.97;4925582;29;20560;-85
2023/01/12 02:10:41;;;;;;;9.17;1.90;;;;;;;5.76;83.89;95807.41;4925692;29;20249;-85
2023/01/12 02:18:46;;;;;;;5.07;1.37;;;;;;;5.95;82.94;95818.84;4935157;29;20220;-84
2023/01/12 02:21:17;;;;;;;5.33;1.43;;;;;;;5.87;83.28;95805.69;4925053;29;20210;-84
2023/01/12 02:23:45;;;;;;;9.20;1.67;;;;;;;5.74;84.08;95799.75;4927718;29;20668;-85
2023/01/12 02:26:27;;;;;;;6.70;1.47;;;;;;;5.75;84.04;95796.28;4923738;29;20667;-85
2023/01/12 02:29:27;;;;;;;5.70;1.50;;;;;;;5.90;84.04;95797.75;4930662;29;20635;-84
2023/01/12 02:32:18;;;;;;;3.77;1.63;;;;;;;5.95;83.17;95787.94;4944523;29;20197;-85
2023/01/12 02:34:47;;;;;;;6.00;1.60;;;;;;;5.90;83.87;95784.00;4925194;29;20225;-84
2023/01/12 02:37:18;;;;;;;9.27;1.63;;;;;;;5.88;84.41;95783.31;4923200;29;20210;-85
2023/01/12 02:39:49;;;;;;;3.60;1.33;;;;;;;5.73;85.12;95772.34;4916792;29;20263;-86
2023/01/12 02:42:43;;;;;;;10.20;1.60;;;;;;;5.76;85.44;95771.31;4932851;29;20186;-84
2023/01/12 02:45:26;;;;;;;7.40;1.50;;;;;;;5.58;85.42;95782.03;4941308;29;20972;-84
2023/01/12 02:48:13;;;;;;;5.43;1.37;;;;;;;5.72;84.90;95775.88;4932212;29;20207;-84
2023/01/12 02:50:46;;;;;;;8.07;2.00;;;;;;;5.65;85.28;95772.09;4937959;29;20197;-84
2023/01/12 02:53:20;;;;;;;6.97;1.63;;;;;;;5.66;85.40;95760.88;4916195;29;20229;-85
2023/01/12 02:55:46;;;;;;;12.30;4.23;;;;;;;5.61;82.98;95757.81;4911785;29;20642;-85
2023/01/12 02:58:13;;;;;;;4.33;1.10;;;;;;;5.89;80.78;95741.13;4931852;29;20237;-85
2023/01/12 03:00:40;;;;;;;5.00;2.03;;;;;;;5.86;80.10;95746.50;4914717;29;20213;-84
2023/01/12 03:03:06;;;;;;;6.73;1.80;;;;;;;5.82;78.10;95753.63;4943832;29;20553;-86
2023/01/12 03:05:31;;;;;;;7.03;1.93;;;;;;;5.99;78.71;95761.91;4945751;29;20193;-84
2023/01/12 03:08:01;;;;;;;6.90;1.40;;;;;;;6.06;78.13;95757.94;4924468;29;20189;-85
2023/01/12 03:10:48;;;;;;;7.67;1.77;;;;;;;6.04;77.82;95759.81;4915500;29;20190;-85
2023/01/12 03:13:15;;;;;;;7.13;1.83;;;;;;;6.18;77.08;95763.00;4926038;29;20269;-84
2023/01/12 03:15:44;;;;;;;6.93;1.73;;;;;;;6.14;78.04;95761.59;4918542;29;20191;-85
2023/01/12 03:18:30;;;;;;;9.03;1.77;;;;;;;6.05;78.60;95757.13;4944484;29;20214;-85
2023/01/12 03:21:00;;;;;;;13.00;1.83;;;;;;;6.07;77.71;95762.16;4923591;29;20206;-85
2023/01/12 03:23:29;;;;;;;8.93;2.23;;;;;;;5.88;77.62;95773.00;4937029;29;20705;-85
2023/01/12 03:25:55;;;;;;;4.40;1.30;;;;;;;6.02;77.88;95767.69;4907053;29;20194;-83
2023/01/12 03:28:21;;;;;;;7.50;1.80;;;;;;;6.05;77.90;95757.13;4922912;29;20226;-84
2023/01/12 03:31:02;;;;;;;7.00;1.40;;;;;;;6.06;78.18;95757.94;4916614;29;20563;-83
2023/01/12 03:33:28;;;;;;;8.53;2.10;;;;;;;6.13;77.97;95759.94;4929846;29;20568;-84
2023/01/12 03:36:03;;;;;;;5.77;1.40;;;;;;;6.10;77.58;95767.09;4924044;29;20193;-84
2023/01/12 03:38:36;;;;;;;8.27;1.53;;;;;;;6.13;76.72;95759.94;4922456;29;20713;-85
2023/01/12 03:41:36;;;;;;;11.30;1.80;;;;;;;6.22;77.15;95748.94;4920055;29;20201;-83
2023/01/12 03:44:04;;;;;;;11.17;1.97;;;;;;;6.20;77.02;95750.00;4925232;29;20195;-85
2023/01/12 03:46:34;;;;;;;5.83;1.80;;;;;;;6.20;76.76;95740.50;4915579;29;20229;-84
2023/01/12 03:49:14;;;;;;;7.77;1.60;;;;;;;6.22;77.06;95742.97;4931052;29;20305;-85
2023/01/12 03:51:41;;;;;;;9.93;2.07;;;;;;;6.20;76.79;95734.53;4916035;29;21019;-84
2023/01/12 03:54:08;;;;;;;6.00;1.33;;;;;;;6.22;76.44;95746.34;4943709;29;20265;-86
2023/01/12 03:56:35;;;;;;;6.53;1.70;;;;;;;6.24;76.53;95747.06;4912063;29;20629;-85
2023/01/12 03:59:02;;;;;;;7.87;1.53;;;;;;;6.23;76.55;95750.56;4923489;29;20217;-85
2023/01/12 04:01:27;;;;;;;6.83;1.90;;;;;;;6.15;76.65;95742.59;4917552;29;20202;-85
2023/01/12 04:03:52;;;;;;;10.00;1.87;;;;;;;6.26;76.41;95741.78;4926598;29;20183;-86
2023/01/12 04:06:18;;;;;;;7.00;1.83;;;;;;;6.21;76.15;95726.69;4929919;29;20194;-85
2023/01/12 04:08:43;;;;;;;9.53;1.83;;;;;;;6.28;76.46;95719.28;4921025;29;20264;-85
2023/01/12 04:13:52;;;;;;;9.20;1.70;;;;;;;6.24;76.06;95728.19;4928901;29;20224;-85
2023/01/12 04:16:18;;;;;;;9.90;2.97;;;;;;;6.12;76.14;95721.41;4937662;29;20269;-85
2023/01/12 04:18:43;;;;;;;7.13;1.97;;;;;;;6.37;75.28;95723.75;4923339;29;20213;-87
2023/01/12 04:22:41;;;;;;;9.43;2.13;;;;;;;6.23;75.96;95718.81;4923488;29;20293;-86
2023/01/12 04:23:54;;;;;;;9.87;1.60;;;;;;;6.17;75.92;95717.50;4941909;29;20686;-85
2023/01/12 04:26:19;;;;;;;8.20;1.83;;;;;;;6.18;75.46;95702.84;4908773;29;20191;-86
2023/01/12 04:28:47;;;;;;;8.67;1.30;;;;;;;6.34;74.95;95710.25;4926072;29;20241;-83
2023/01/12 04:31:13;;;;;;;7.50;2.10;;;;;;;6.29;75.56;95713.19;4930241;29;20186;-85
2023/01/12 04:33:38;;;;;;;7.53;1.70;;;;;;;6.21;75.60;95706.03;4923158;29;20210;-85
2023/01/12 04:36:03;;;;;;;7.87;1.93;;;;;;;6.24;75.04;95704.97;4944537;29;20190;-87
2023/01/12 04:38:29;;;;;;;4.83;1.43;;;;;;;6.37;74.71;95695.38;4923109;29;20214;-85
2023/01/12 04:40:54;;;;;;;8.13;1.60;;;;;;;6.26;75.09;95692.78;4939038;29;20309;-85
2023/01/12 04:43:19;;;;;;;5.73;1.73;;;;;;;6.29;74.92;95694.31;4910361;29;20725;-86
2023/01/12 04:45:46;;;;;;;6.33;2.10;;;;;;;6.21;74.99;95700.06;4912551;29;20581;-86
2023/01/12 04:48:13;;;;;;;7.50;1.60;;;;;;;6.32;75.06;95688.91;4921777;29;20242;-86
2023/01/12 04:50:41;;;;;;;12.37;2.03;;;;;;;6.28;74.95;95685.78;4929824;29;20182;-86
2023/01/12 04:53:09;;;;;;;6.13;1.87;;;;;;;6.22;74.77;95691.38;4920947;29;20201;-86
2023/01/12 04:55:35;;;;;;;10.30;1.60;;;;;;;6.29;74.61;95702.88;4919082;29;20213;-87
2023/01/12 04:58:00;;;;;;;4.23;1.70;;;;;;;6.31;74.86;95700.19;4906490;29;20604;-86
2023/01/12 05:00:26;;;;;;;7.57;1.87;;;;;;;6.39;75.26;95703.81;4924774;29;20206;-86
2023/01/12 05:03:00;;;;;;;4.67;1.87;;;;;;;6.37;74.80;95710.84;4942620;29;20190;-85
2023/01/12 05:05:29;;;;;;;6.47;1.77;;;;;;;6.28;74.93;95708.97;4916113;29;20193;-86
2023/01/12 05:10:41;;;;;;;8.13;1.93;;;;;;;6.40;74.87;95705.44;4942079;29;20249;-86
2023/01/12 05:13:07;;;;;;;6.13;1.47;;;;;;;6.41;74.97;95701.94;4938910;29;20183;-85
2023/01/12 05:15:32;;;;;;;8.37;1.90;;;;;;;6.38;75.49;95712.50;4925428;29;20189;-85
2023/01/12 05:17:57;;;;;;;7.73;1.63;;;;;;;6.44;75.90;95713.75;4926519;29;20217;-85
2023/01/12 05:20:23;;;;;;;14.63;2.17;;;;;;;6.52;76.27;95716.56;4924398;29;20256;-87
2023/01/12 05:22:50;;;;;;;10.83;2.10;;;;;;;6.44;76.57;95718.91;4927236;29;20186;-85
2023/01/12 05:25:15;;;;;;;7.20;2.00;;;;;;;6.33;77.80;95718.94;4923395;29;20526;-85
2023/01/12 05:27:40;;;;;;;8.37;2.40;;;;;;;6.30;78.30;95706.28;4911043;29;20256;-86
2023/01/12 05:30:07;;;;;;;10.97;1.87;;;;;;;6.52;78.23;95714.00;4917530;29;20210;-88
2023/01/12 05:32:37;;;;;;;7.07;1.60;;;;;;;6.31;79.65;95706.16;4927296;29;20193;-86
2023/01/12 05:35:04;;;;;;;6.33;1.73;;;;;;;6.20;80.55;95688.13;4935632;29;20193;-86
2023/01/12 05:37:29;;;;;;;5.00;1.43;;;;;;;6.11;80.78;95686.25;4914244;29;20557;-86
2023/01/12 05:39:54;;;;;;;10.63;2.00;;;;;;;6.13;80.59;95681.78;4920142;29;20218;-85
2023/01/12 05:45:04;;;;;;;7.07;1.90;;;;;;;6.18;81.03;95677.06;4922688;29;20749;-86
2023/01/12 05:47:30;;;;;;;6.10;1.57;;;;;;;5.98;81.94;95678.59;4938379;29;20191;-85
2023/01/12 05:49:55;;;;;;;8.10;1.73;;;;;;;6.03;81.72;95678.25;4929285;29;20233;-86
2023/01/12 05:52:21;;;;;;;5.70;1.33;;;;;;;5.94;82.47;95683.19;4931465;29;20206;-85
2023/01/12 05:54:46;;;;;;;6.07;1.73;;;;;;;6.04;82.01;95667.00;4927277;29;20700;-85
2023/01/12 05:57:11;;;;;;;9.40;1.70;;;;;;;5.86;82.27;95664.84;4929338;29;20198;-85
2023/01/12 05:59:36;;;;;;;7.13;1.50;;;;;;;6.05;81.93;95654.00;4919064;29;20241;-84
2023/01/12 06:02:02;;;;;;;8.67;1.77;;;;;;;5.85;82.41;95655.50;4925326;29;20202;-85
2023/01/12 06:04:27;;;;;;;5.87;1.60;;;;;;;5.88;82.31;95649.28;4945472;29;20229;-85
2023/01/12 06:06:52;;;;;;;6.87;1.57;;;;;;;5.85;82.58;95649.53;4924482;29;20202;-85
2023/01/12 06:09:18;;;;;;;6.70;1.40;;;;;;;5.87;82.19;95640.72;4941078;29;20206;-84
2023/01/12 06:14:27;;;;;;;8.80;1.73;;;;;;;5.91;82.55;95637.00;4942025;29;20803;-84
2023/01/12 06:16:52;;;;;;;7.10;1.80;;;;;;;5.92;82.69;95641.25;4921400;29;20185;-82
2023/01/12 06:19:17;;;;;;;9.90;2.13;;;;;;;5.94;82.21;95626.47;4939996;29;20214;-82
2023/01/12 06:21:43;;;;;;;6.00;1.70;;;;;;;6.10;81.65;95636.44;4921415;29;20279;-82
2023/01/12 06:24:08;;;;;;;4.90;1.37;;;;;;;6.16;81.26;95624.81;4906494;29;20218;-83
2023/01/12 06:26:33;;;;;;;8.53;1.27;;;;;;;5.99;81.71;95625.28;4921218;29;20249;-83
2023/01/12 06:28:59;;;;;;;4.63;1.40;;;;;;;6.05;81.69;95615.31;4940009;29;20213;-81
2023/01/12 06:31:24;;;;;;;7.87;1.50;;;;;;;5.95;82.47;95609.25;4914120;29;20202;-83
2023/01/12 06:33:49;;;;;;;7.13;1.77;;;;;;;6.17;81.84;95621.28;4936783;29;20219;-82
2023/01/12 06:36:14;;;;;;;5.00;1.40;;;;;;;6.09;82.44;95621.06;4923083;29;20280;-81
2023/01/12 06:38:40;;;;;;;4.47;1.50;;;;;;;6.20;81.80;95615.91;4926632;29;20276;-81
2023/01/12 06:44:05;;;;;;;6.10;1.50;;;;;;;6.10;83.07;95620.16;4914823;29;20202;-82
2023/01/12 06:46:30;;;;;;;6.83;1.33;;;;;;;6.25;82.77;95613.78;4945140;29;20186;-83
2023/01/12 06:48:57;;;;;;;5.73;1.40;;;;;;;6.07;83.79;95620.38;4925080;29;20210;-83
2023/01/12 06:51:22;;;;;;;5.77;1.43;;;;;;;5.99;84.03;95633.84;4941175;29;20209;-80
2023/01/12 06:53:48;;;;;;;8.67;1.70;;;;;;;5.99;84.43;95633.84;4923602;29;20678;-81
2023/01/12 06:56:13;;;;;;;5.13;1.20;;;;;;;6.09;83.99;95628.78;4915624;29;20195;-82
2023/01/12 06:58:41;;;;;;;4.50;1.53;;;;;;;6.18;83.74;95616.03;4937997;29;20218;-84
2023/01/12 07:01:06;;;;;;;5.00;1.67;;;;;;;6.10;83.78;95615.00;4923110;29;20217;-84
2023/01/12 07:03:32;;;;;;;8.07;1.60;;;;;;;6.12;83.89;95618.25;4928369;29;20248;-82
2023/01/12 07:05:58;;;;;;;6.50;1.53;;;;;;;6.26;83.45;95625.72;4946573;29;20190;-82
2023/01/12 07:08:23;;;;;;;7.37;1.37;;;;;;;6.20;83.06;95628.81;4925694;29;20308;-82
2023/01/12 07:10:48;;;;;;;8.53;1.60;;;;;;;6.23;83.59;95618.25;4935010;29;20267;-82
2023/01/12 07:13:14;;;;;;;5.83;1.20;;;;;;;6.23;83.16;95620.81;4915425;29;20196;-83
2023/01/12 07:15:39;;;;;;;3.93;1.60;;;;;;;6.29;82.86;95622.13;4916835;29;20181;-83
2023/01/12 07:18:04;;;;;;;6.30;1.73;;;;;;;6.46;82.44;95612.13;4923074;29;20194;-82
2023/01/12 07:20:31;;;;;;;6.00;1.43;;;;;;;6.16;83.17;95599.03;4917423;29;20633;-82
2023/01/12 07:22:56;;;;;;;7.43;1.77;;;;;;;6.31;82.52;95604.75;4915164;29;20278;-83
2023/01/12 07:25:23;;;;;;;5.20;1.17;;;;;;;6.39;81.98;95600.63;4919473;29;20284;-82
2023/01/12 07:27:50;;;;;;;5.77;1.27;;;;;;;6.34;82.34;95601.94;4935840;29;20574;-82
2023/01/12 07:30:17;;;;;;;4.23;1.30;;;;;;;6.31;82.31;95617.66;4915184;29;20241;-82
2023/01/12 07:32:42;;;;;;;5.77;1.40;;;;;;;6.56;81.89;95606.22;4933209;29;20182;-81
2023/01/12 07:35:07;;;;;;;5.93;1.70;;;;;;;6.45;82.10;95609.66;4906254;29;20193;-83
2023/01/12 07:37:32;;;;;;;6.70;1.80;;;;;;;6.48;81.99;95615.38;4930080;29;20276;-82
2023/01/12 07:39:58;;;;;;;4.10;1.20;;;;;;;6.34;82.44;95605.31;4946551;29;20214;-81
2023/01/12 07:42:23;;;;;;;3.83;1.50;;;;;;;6.48;82.19;95614.56;4925855;29;20187;-82
2023/01/12 07:44:48;;;;;;;5.13;1.40;;;;;;;6.53;82.23;95599.53;4921292;29;20273;-84
2023/01/12 07:47:14;;;;;;;6.07;1.27;;;;;;;6.50;82.20;95597.19;4913182;29;20222;-83
2023/01/12 07:49:39;;;;;;;7.33;1.90;;;;;;;6.43;82.89;95603.78;4917009;29;20297;-83
2023/01/12 07:52:04;;;;;;;3.67;1.40;;;;;;;6.49;82.77;95598.16;4922281;29;20182;-82
2023/01/12 07:54:30;;;;;;;6.03;1.13;;;;;;;6.46;82.16;95599.22;4927708;29;20280;-82
2023/01/12 07:56:55;;;;;;;3.30;1.13;;;;;;;6.46;82.83;95606.97;4932570;29;20284;-82
2023/01/12 07:59:20;;;;;;;6.80;1.43;;;;;;;6.39;82.75;95605.78;4929400;29;20721;-83
2023/01/12 08:01:46;;;;;;;5.37;1.63;;;;;;;6.43;82.73;95612.34;4924364;29;20221;-82
2023/01/12 08:04:12;;;;;;;6.13;1.57;;;;;;;6.42;82.49;95610.69;4920226;29;20214;-82
2023/01/12 08:06:37;;;;;;;5.00;1.50;;;;;;;6.44;82.41;95605.41;4919898;29;20187;-83
2023/01/12 08:09:02;;;;;;;9.40;1.60;;;;;;;6.66;81.57;95614.88;4926152;29;20216;-82
2023/01/12 08:11:28;;;;;;;5.40;1.20;;;;;;;6.66;81.47;95612.28;4920493;29;20189;-83
2023/01/12 08:13:54;;;;;;;5.57;1.60;;;;;;;6.59;81.43;95617.13;4933830;29;20642;-83
2023/01/12 08:16:24;;;;;;;4.97;1.40;;;;;;;6.51;81.47;95615.13;4922099;29;20181;-83
2023/01/12 08:18:51;;;;;;;5.10;1.17;;;;;;;6.61;81.77;95622.97;4918729;29;20247;-83
2023/01/12 08:21:20;;;;;;;2.90;1.23;;;;;;;6.69;80.85;95632.69;4949817;29;20217;-84
2023/01/12 08:23:48;;;;;;;3.90;1.30;;;;;;;6.62;81.26;95627.19;4935044;29;20193;-83
2023/01/12 08:26:17;;;;;;;2.30;0.80;;;;;;;6.74;80.78;95626.22;4925654;29;20212;-83
2023/01/12 08:28:46;;;;;;;4.70;1.20;;;;;;;6.87;80.24;95615.72;4920879;29;20233;-82
2023/01/12 08:31:12;;;;;;;2.87;1.27;;;;;;;6.69;80.78;95630.09;4934812;29;20204;-83
2023/01/12 08:33:38;;;;;;;3.37;1.10;;;;;;;6.70;81.33;95629.97;4931312;29;20655;-83
2023/01/12 08:36:04;;;;;;;6.60;1.50;;;;;;;6.79;81.34;95631.81;4934134;29;20289;-83
2023/01/12 08:38:30;;;;;;;3.03;1.13;;;;;;;6.71;81.58;95610.16;4935204;29;20206;-84
2023/01/12 08:46:23;;;;;;;6.53;1.60;;;;;;;6.98;80.81;95626.03;4945560;29;20669;-82
2023/01/12 08:48:48;;;;;;;3.67;1.37;;;;;;;7.01;81.05;95633.53;4948598;29;20213;-83
2023/01/12 08:51:14;;;;;;;3.17;1.20;;;;;;;6.95;81.22;95636.59;4927568;29;20189;-83
2023/01/12 08:53:39;;;;;;;4.53;1.90;;;;;;;6.88;81.60;95643.19;4922233;29;20198;-82
2023/01/12 08:56:05;;;;;;;2.50;1.30;;;;;;;6.91;81.57;95636.97;4917336;29;20205;-82
2023/01/12 08:58:31;;;;;;;9.10;2.47;;;;;;;6.89;81.63;95633.66;4921161;29;20231;-83
2023/01/12 09:00:56;;;;;;;4.37;1.30;;;;;;;7.00;81.72;95641.41;4933620;29;20215;-83
2023/01/12 09:03:21;;;;;;;4.10;1.83;;;;;;;6.99;82.33;95637.19;4931800;29;20249;-82
2023/01/12 09:05:47;;;;;;;5.17;1.43;;;;;;;7.14;81.62;95651.41;4948099;29;20194;-83
2023/01/12 09:08:13;;;;;;;5.70;1.37;;;;;;;7.08;81.93;95646.75;4916818;29;20244;-82
2023/01/12 09:10:38;;;;;;;3.93;1.40;;;;;;;7.04;82.07;95642.78;4935838;29;20178;-83
2023/01/12 09:13:04;;;;;;;6.63;1.30;;;;;;;7.14;81.35;95653.19;4916798;29;20199;-82
2023/01/12 09:15:29;;;;;;;5.20;1.07;;;;;;;6.83;81.78;95650.50;4935540;29;20204;-82
2023/01/12 09:17:55;;;;;;;5.03;1.33;;;;;;;6.99;80.72;95660.41;4925582;29;20221;-83
2023/01/12 09:20:21;;;;;;;4.20;1.20;;;;;;;6.85;80.56;95638.28;4947019;29;20808;-82
2023/01/12 09:22:46;;;;;;;3.80;1.00;;;;;;;7.02;80.56;95662.75;4932624;29;20237;-83
2023/01/12 09:25:11;;;;;;;4.40;1.13;;;;;;;7.14;80.29;95648.84;4938920;29;20201;-84
2023/01/12 09:27:37;;;;;;;4.73;1.00;;;;;;;7.29;79.56;95649.34;4944801;29;20830;-82
2023/01/12 09:30:04;;;;;;;5.33;1.43;;;;;;;7.18;79.31;95645.06;4934023;29;20222;-82
2023/01/12 09:32:29;;;;;;;2.90;1.30;;;;;;;7.31;77.86;95642.31;4932394;29;20200;-84
2023/01/12 09:34:54;;;;;;;4.93;1.10;;;;;;;7.16;78.70;95633.22;4924922;29;20599;-84
2023/01/12 09:37:20;;;;;;;4.70;1.57;;;;;;;7.23;78.37;95624.03;4920186;29;20194;-83
2023/01/12 09:39:45;;;;;;;4.93;0.90;;;;;;;7.28;77.26;95640.78;4918546;29;20218;-84
2023/01/12 09:47:46;;;;;;;3.93;1.67;;;;;;;7.59;75.61;95612.41;4933156;29;20197;-84
2023/01/12 09:50:15;;;;;;;3.67;1.13;;;;;;;7.50;75.51;95619.16;4926445;29;20206;-84
2023/01/12 09:52:57;;;;;;;4.90;1.00;;;;;;;7.64;75.08;95611.09;4928534;29;20189;-83
2023/01/12 09:55:25;;;;;;;4.30;1.60;;;;;;;7.65;74.53;95620.50;4948917;29;20673;-83
2023/01/12 09:58:05;;;;;;;3.20;0.93;;;;;;;7.82;73.57;95605.34;4914021;29;20197;-83
2023/01/12 10:00:31;;;;;;;5.90;1.20;;;;;;;7.77;74.06;95592.78;4925741;29;20579;-83
2023/01/12 10:03:11;;;;;;;4.97;1.00;;;;;;;7.77;72.97;95617.81;4919433;29;20201;-85
2023/01/12 10:05:39;;;;;;;4.23;1.63;;;;;;;7.85;72.53;95594.72;4917616;29;20237;-84
2023/01/12 10:08:04;;;;;;;3.13;1.00;;;;;;;8.04;72.13;95607.75;4939375;29;20201;-84
2023/01/12 10:10:30;;;;;;;5.37;1.33;;;;;;;8.02;71.66;95594.13;4917372;29;20655;-84
2023/01/12 10:12:59;;;;;;;3.00;1.00;;;;;;;8.00;71.88;95595.19;4919375;29;20190;-83
2023/01/12 10:15:24;;;;;;;6.20;2.13;;;;;;;7.58;72.41;95603.84;4911319;29;20927;-85
2023/01/12 10:17:58;;;;;;;5.63;2.40;;;;;;;7.89;71.90;95598.69;4939602;29;20288;-84
2023/01/12 10:20:44;;;;;;;2.10;1.33;;;;;;;7.90;71.53;95602.94;4930733;29;20238;-83
2023/01/12 10:23:09;;;;;;;4.83;1.43;;;;;;;8.02;71.02;95594.13;4915250;29;20210;-83
2023/01/12 10:25:48;;;;;;;3.53;1.17;;;;;;;8.10;70.70;95590.88;4938783;29;20190;-83
2023/01/12 10:28:20;;;;;;;3.30;0.90;;;;;;;8.11;70.14;95595.09;4945126;29;20221;-84
2023/01/12 10:30:46;;;;;;;4.83;1.00;;;;;;;8.16;70.02;95596.34;4947915;29;20188;-83
2023/01/12 10:33:15;;;;;;;4.63;1.10;;;;;;;8.18;69.92;95589.28;4927413;29;20206;-82
2023/01/12 10:35:49;;;;;;;3.03;0.90;;;;;;;8.02;70.18;95583.78;4937326;29;20187;-83
2023/01/12 10:38:21;;;;;;;1.23;0.80;;;;;;;8.13;69.76;95591.44;4915914;29;20206;-85
2023/01/12 10:41:21;;;;;;;2.80;1.00;;;;;;;8.24;69.56;95593.94;4903303;29;20582;-83
2023/01/12 10:44:06;;;;;;;2.97;1.23;;;;;;;8.00;69.82;95571.94;4932871;29;20209;-82
2023/01/12 10:46:32;;;;;;;1.83;0.83;;;;;;;8.26;68.94;95569.69;4932727;29;20189;-84
2023/01/12 10:49:21;;;;;;;4.07;1.43;;;;;;;8.04;68.99;95574.13;4932855;29;20216;-83
2023/01/12 10:51:56;;;;;;;2.23;0.90;;;;;;;8.37;68.77;95585.13;4924297;29;20181;-83
2023/01/12 10:54:24;;;;;;;2.80;0.80;;;;;;;8.19;69.55;95582.31;4918239;29;20681;-85
2023/01/12 10:56:56;;;;;;;4.03;1.40;;;;;;;8.45;69.39;95574.94;4932310;29;20201;-84
2023/01/12 10:59:25;;;;;;;3.70;0.67;;;;;;;8.30;69.56;95581.41;4925756;29;20205;-85
2023/01/12 11:02:02;;;;;;;1.93;0.73;;;;;;;8.35;69.52;95580.09;4936357;29;20277;-85
2023/01/12 11:04:28;;;;;;;1.07;0.60;;;;;;;8.09;70.92;95563.38;4914301;29;20193;-84
2023/01/12 11:07:13;;;;;;;0.80;0.70;;;;;;;8.16;71.28;95549.78;4915910;29;20201;-82
2023/01/12 11:09:39;;;;;;;2.87;1.90;;;;;;;8.05;71.41;95555.06;4937551;29;20260;-82
2023/01/12 11:12:25;;;;;;;4.93;1.27;;;;;;;8.17;71.43;95555.78;4913790;29;20191;-84
2023/01/12 11:15:00;;;;;;;4.60;0.97;;;;;;;8.01;72.01;95602.81;4928510;29;20189;-83
2023/01/12 11:17:37;;;;;;;1.10;0.47;;;;;;;8.37;70.85;95569.59;4938920;29;20616;-84
2023/01/12 11:20:19;;;;;;;2.27;0.70;;;;;;;8.44;70.40;95575.88;4946943;29;20829;-82
2023/01/12 11:22:45;;;;;;;2.53;0.60;;;;;;;8.38;70.88;95563.47;4917383;29;20190;-82
2023/01/12 11:25:32;;;;;;;2.33;0.70;;;;;;;8.59;69.88;95577.13;4921800;29;20192;-82
2023/01/12 11:28:10;;;;;;;1.47;0.70;;;;;;;8.68;70.30;95563.38;4931965;29;20209;-84
2023/01/12 11:30:39;;;;;;;2.13;0.47;;;;;;;8.58;69.96;95559.97;4917702;29;20232;-84
2023/01/12 11:33:19;;;;;;;1.90;0.80;;;;;;;8.45;70.33;95562.00;4946406;29;20183;-82
2023/01/12 11:35:50;;;;;;;0.50;0.50;;;;;;;8.45;70.95;95556.81;4918994;29;20193;-82
2023/01/12 11:38:18;;;;;;;1.87;0.80;;;;;;;8.45;70.40;95555.03;4931060;29;20212;-84
2023/01/12 11:40:44;;;;;;;1.20;0.70;;;;;;;8.37;70.71;95556.66;4923039;29;20234;-82
2023/01/12 11:46:09;;;;;;;1.60;0.80;;;;;;;8.28;71.68;95575.53;4920716;29;20189;-84
2023/01/12 11:48:46;;;;;;;2.50;0.80;;;;;;;8.24;71.96;95552.53;4921160;29;20578;-82
2023/01/12 11:51:14;;;;;;;1.97;0.73;;;;;;;8.34;72.03;95562.09;4928688;29;20182;-84
2023/01/12 11:53:40;;;;;;;1.03;0.43;;;;;;;8.41;71.82;95558.88;4921760;29;20337;-83
2023/01/12 11:56:31;;;;;;;1.03;0.70;;;;;;;8.53;70.98;95546.59;4917493;29;20718;-82
2023/01/12 11:59:09;;;;;;;1.00;0.80;;;;;;;8.58;70.97;95552.22;4935414;29;20651;-84
2023/01/12 12:01:53;;;;;;;0.97;0.50;;;;;;;8.30;72.21;95542.59;4923191;29;20209;-84
2023/01/12 12:04:33;;;;;;;1.30;0.93;;;;;;;8.59;71.68;95540.91;4934769;29;20634;-82
2023/01/12 12:07:07;;;;;;;0.77;0.50;;;;;;;8.66;70.66;95541.19;4931212;29;20186;-83
2023/01/12 12:09:42;;;;;;;0.77;0.40;;;;;;;8.62;70.63;95534.63;4945185;29;20213;-84
2023/01/12 12:12:28;;;;;;;0.87;0.40;;;;;;;8.62;70.89;95535.44;4934238;29;20190;-83
2023/01/12 12:15:19;;;;;;;0.83;0.83;;;;;;;8.75;70.44;95532.59;4943704;29;20186;-82
2023/01/12 12:18:07;;;;;;;0.50;0.40;;;;;;;8.72;71.07;95519.91;4926213;29;20190;-84
2023/01/12 12:20:50;;;;;;;0.63;0.40;;;;;;;8.72;71.29;95520.72;4920614;29;20604;-84
2023/01/12 12:23:46;;;;;;;1.63;0.67;;;;;;;8.62;71.53;95512.16;4931337;29;20200;-81
2023/01/12 12:26:34;;;;;;;0.50;0.50;;;;;;;8.69;70.67;95513.25;4940642;29;20220;-83
2023/01/12 12:29:06;;;;;;;0.50;0.47;;;;;;;8.59;70.63;95525.38;4918533;29;20222;-83